sensor_id;sensor_type;location;lat;lon;timestamp;pressure;altitude;pressure_sealevel;temperature;humidity
79534;BME280;68982;52.160;6.736;2023-05-10T00:00:20;100590.72;;;12.64;90.05
79534;BME280;68982;52.160;6.736;2023-05-10T00:02:47;100605.50;;;12.55;89.27
79534;BME280;68982;52.160;6.736;2023-05-10T00:05:13;100599.47;;;12.73;89.24
79534;BME280;68982;52.160;6.736;2023-05-10T00:07:38;100604.66;;;12.74;89.63
79534;BME280;68982;52.160;6.736;2023-05-10T00:10:04;100595.94;;;12.65;89.87
79534;BME280;68982;52.160;6.736;2023-05-10T00:12:29;100598.63;;;12.59;90.34
79534;BME280;68982;52.160;6.736;2023-05-10T00:14:55;100594.25;;;12.64;90.40
79534;BME280;68982;52.160;6.736;2023-05-10T00:17:20;100591.75;;;12.76;89.35
79534;BME280;68982;52.160;6.736;2023-05-10T00:19:45;100596.13;;;12.64;89.94
79534;BME280;68982;52.160;6.736;2023-05-10T00:22:11;100590.50;;;12.59;89.96
79534;BME280;68982;52.160;6.736;2023-05-10T00:24:36;100599.25;;;12.41;90.49
79534;BME280;68982;52.160;6.736;2023-05-10T00:27:01;100600.50;;;12.65;90.50
79534;BME280;68982;52.160;6.736;2023-05-10T00:29:29;100599.25;;;12.68;90.01
79534;BME280;68982;52.160;6.736;2023-05-10T00:31:54;100603.81;;;12.54;90.24
79534;BME280;68982;52.160;6.736;2023-05-10T00:34:20;100597.38;;;12.48;90.75
79534;BME280;68982;52.160;6.736;2023-05-10T00:36:45;100597.38;;;12.41;91.12
79534;BME280;68982;52.160;6.736;2023-05-10T00:39:10;100590.50;;;12.32;91.07
79534;BME280;68982;52.160;6.736;2023-05-10T00:41:35;100590.91;;;12.36;91.61
79534;BME280;68982;52.160;6.736;2023-05-10T00:44:01;100584.47;;;12.50;90.33
79534;BME280;68982;52.160;6.736;2023-05-10T00:46:27;100595.09;;;12.52;90.62
79534;BME280;68982;52.160;6.736;2023-05-10T00:48:53;100590.50;;;12.65;90.05
79534;BME280;68982;52.160;6.736;2023-05-10T00:51:19;100594.44;;;12.30;90.71
79534;BME280;68982;52.160;6.736;2023-05-10T00:53:45;100584.06;;;12.60;89.47
79534;BME280;68982;52.160;6.736;2023-05-10T00:56:12;100573.66;;;12.37;90.25
79534;BME280;68982;52.160;6.736;2023-05-10T00:58:39;100588.81;;;12.38;90.95
79534;BME280;68982;52.160;6.736;2023-05-10T01:01:04;100583.81;;;12.28;91.20
79534;BME280;68982;52.160;6.736;2023-05-10T01:03:31;100591.94;;;12.28;91.61
79534;BME280;68982;52.160;6.736;2023-05-10T01:05:57;100565.09;;;12.33;90.15
79534;BME280;68982;52.160;6.736;2023-05-10T01:08:22;100586.97;;;12.52;90.02
79534;BME280;68982;52.160;6.736;2023-05-10T01:10:48;100589.25;;;12.48;90.25
79534;BME280;68982;52.160;6.736;2023-05-10T01:13:20;100591.31;;;12.39;90.74
79534;BME280;68982;52.160;6.736;2023-05-10T01:15:48;100585.50;;;12.42;90.65
79534;BME280;68982;52.160;6.736;2023-05-10T01:18:15;100583.66;;;12.43;90.25
79534;BME280;68982;52.160;6.736;2023-05-10T01:20:45;100584.25;;;12.38;91.09
79534;BME280;68982;52.160;6.736;2023-05-10T01:23:37;100586.34;;;12.36;91.16
79534;BME280;68982;52.160;6.736;2023-05-10T01:29:13;100595.09;;;12.58;89.80
79534;BME280;68982;52.160;6.736;2023-05-10T01:34:39;100586.75;;;12.73;88.28
79534;BME280;68982;52.160;6.736;2023-05-10T01:37:11;100595.28;;;12.63;88.98
79534;BME280;68982;52.160;6.736;2023-05-10T01:39:45;100592.59;;;12.50;89.83
79534;BME280;68982;52.160;6.736;2023-05-10T01:42:23;100590.09;;;12.49;89.22
79534;BME280;68982;52.160;6.736;2023-05-10T01:45:17;100595.28;;;12.50;89.83
79534;BME280;68982;52.160;6.736;2023-05-10T01:47:46;100588.19;;;12.49;89.62
79534;BME280;68982;52.160;6.736;2023-05-10T01:50:19;100585.72;;;12.41;90.49
79534;BME280;68982;52.160;6.736;2023-05-10T01:52:55;100591.97;;;12.55;89.42
79534;BME280;68982;52.160;6.736;2023-05-10T01:55:25;100591.53;;;12.58;88.94
79534;BME280;68982;52.160;6.736;2023-05-10T01:57:55;100590.06;;;12.42;89.55
79534;BME280;68982;52.160;6.736;2023-05-10T02:00:24;100599.25;;;12.68;89.24
79534;BME280;68982;52.160;6.736;2023-05-10T02:02:50;100593.41;;;12.64;88.28
79534;BME280;68982;52.160;6.736;2023-05-10T02:05:17;100591.75;;;12.56;90.00
79534;BME280;68982;52.160;6.736;2023-05-10T02:07:44;100585.94;;;12.53;89.79
79534;BME280;68982;52.160;6.736;2023-05-10T02:10:11;100591.34;;;12.53;89.90
79534;BME280;68982;52.160;6.736;2023-05-10T02:12:41;100599.25;;;12.61;88.99
79534;BME280;68982;52.160;6.736;2023-05-10T02:15:07;100587.81;;;12.59;89.13
79534;BME280;68982;52.160;6.736;2023-05-10T02:17:35;100595.28;;;12.43;90.02
79534;BME280;68982;52.160;6.736;2023-05-10T02:20:03;100598.00;;;12.43;90.14
79534;BME280;68982;52.160;6.736;2023-05-10T02:22:30;100597.56;;;12.47;90.06
79534;BME280;68982;52.160;6.736;2023-05-10T02:24:57;100599.47;;;12.66;89.33
79534;BME280;68982;52.160;6.736;2023-05-10T02:27:25;100603.41;;;12.63;89.29
79534;BME280;68982;52.160;6.736;2023-05-10T02:29:52;100603.19;;;12.45;90.37
79534;BME280;68982;52.160;6.736;2023-05-10T02:32:19;100606.09;;;12.30;91.16
79534;BME280;68982;52.160;6.736;2023-05-10T02:34:45;100607.72;;;12.24;91.64
79534;BME280;68982;52.160;6.736;2023-05-10T02:37:15;100610.25;;;12.39;90.60
79534;BME280;68982;52.160;6.736;2023-05-10T02:39:42;100614.59;;;12.40;90.97
79534;BME280;68982;52.160;6.736;2023-05-10T02:42:16;100610.28;;;12.53;89.57
79534;BME280;68982;52.160;6.736;2023-05-10T02:44:43;100611.72;;;12.55;89.08
79534;BME280;68982;52.160;6.736;2023-05-10T02:47:10;100609.63;;;12.51;89.79
79534;BME280;68982;52.160;6.736;2023-05-10T02:49:36;100609.00;;;12.42;90.10
79534;BME280;68982;52.160;6.736;2023-05-10T02:52:04;100611.91;;;12.47;90.61
79534;BME280;68982;52.160;6.736;2023-05-10T02:54:37;100610.28;;;12.53;89.74
79534;BME280;68982;52.160;6.736;2023-05-10T02:57:06;100605.69;;;12.53;89.67
79534;BME280;68982;52.160;6.736;2023-05-10T02:59:32;100612.16;;;12.52;90.03
79534;BME280;68982;52.160;6.736;2023-05-10T03:01:59;100609.63;;;12.51;89.72
79534;BME280;68982;52.160;6.736;2023-05-10T03:04:25;100610.25;;;12.46;90.25
79534;BME280;68982;52.160;6.736;2023-05-10T03:06:50;100611.31;;;12.58;89.26
79534;BME280;68982;52.160;6.736;2023-05-10T03:09:16;100590.28;;;12.47;90.20
79534;BME280;68982;52.160;6.736;2023-05-10T03:17:25;100604.03;;;12.52;89.69
79534;BME280;68982;52.160;6.736;2023-05-10T03:19:56;100598.41;;;12.47;89.51
79534;BME280;68982;52.160;6.736;2023-05-10T03:22:26;100612.97;;;12.53;90.42
79534;BME280;68982;52.160;6.736;2023-05-10T03:24:55;100602.78;;;12.48;89.86
79534;BME280;68982;52.160;6.736;2023-05-10T03:27:23;100608.81;;;12.43;90.15
79534;BME280;68982;52.160;6.736;2023-05-10T03:29:50;100612.97;;;12.59;89.33
79534;BME280;68982;52.160;6.736;2023-05-10T03:32:16;100604.03;;;12.46;90.04
79534;BME280;68982;52.160;6.736;2023-05-10T03:34:42;100623.34;;;12.49;90.54
79534;BME280;68982;52.160;6.736;2023-05-10T03:37:10;100618.38;;;12.53;89.54
79534;BME280;68982;52.160;6.736;2023-05-10T03:39:35;100621.53;;;12.63;89.98
79534;BME280;68982;52.160;6.736;2023-05-10T03:42:01;100616.72;;;12.45;91.40
79534;BME280;68982;52.160;6.736;2023-05-10T03:44:26;100619.00;;;12.61;89.87
79534;BME280;68982;52.160;6.736;2023-05-10T03:46:51;100622.75;;;12.54;90.55
79534;BME280;68982;52.160;6.736;2023-05-10T03:49:16;100628.38;;;12.59;90.31
79534;BME280;68982;52.160;6.736;2023-05-10T03:51:42;100629.84;;;12.68;89.08
79534;BME280;68982;52.160;6.736;2023-05-10T03:54:07;100628.78;;;12.62;89.92
79534;BME280;68982;52.160;6.736;2023-05-10T03:56:32;100637.31;;;12.59;90.25
79534;BME280;68982;52.160;6.736;2023-05-10T03:58:58;100635.44;;;12.73;89.11
79534;BME280;68982;52.160;6.736;2023-05-10T04:01:23;100645.88;;;12.63;89.71
79534;BME280;68982;52.160;6.736;2023-05-10T04:03:48;100649.19;;;12.52;91.04
79534;BME280;68982;52.160;6.736;2023-05-10T04:06:14;100643.53;;;12.47;91.42
79534;BME280;68982;52.160;6.736;2023-05-10T04:08:39;100651.88;;;12.52;90.70
79534;BME280;68982;52.160;6.736;2023-05-10T04:11:11;100637.31;;;12.53;90.32
79534;BME280;68982;52.160;6.736;2023-05-10T04:13:37;100640.03;;;12.66;90.44
79534;BME280;68982;52.160;6.736;2023-05-10T04:16:03;100643.38;;;12.68;89.81
79534;BME280;68982;52.160;6.736;2023-05-10T04:18:29;100644.81;;;12.57;89.91
79534;BME280;68982;52.160;6.736;2023-05-10T04:20:55;100645.25;;;12.68;89.71
79534;BME280;68982;52.160;6.736;2023-05-10T04:23:20;100646.25;;;12.47;90.69
79534;BME280;68982;52.160;6.736;2023-05-10T04:25:46;100644.19;;;12.55;90.39
79534;BME280;68982;52.160;6.736;2023-05-10T04:28:11;100648.56;;;12.63;90.04
79534;BME280;68982;52.160;6.736;2023-05-10T04:30:36;100647.31;;;12.65;90.61
79534;BME280;68982;52.160;6.736;2023-05-10T04:33:02;100640.03;;;12.59;89.95
79534;BME280;68982;52.160;6.736;2023-05-10T04:35:28;100649.59;;;12.75;89.72
79534;BME280;68982;52.160;6.736;2023-05-10T04:37:54;100649.59;;;12.62;90.56
79534;BME280;68982;52.160;6.736;2023-05-10T04:40:19;100641.28;;;12.57;90.59
79534;BME280;68982;52.160;6.736;2023-05-10T04:42:45;100643.16;;;12.63;90.51
79534;BME280;68982;52.160;6.736;2023-05-10T04:45:11;100644.81;;;12.51;91.17
79534;BME280;68982;52.160;6.736;2023-05-10T04:47:36;100647.72;;;12.56;91.22
79534;BME280;68982;52.160;6.736;2023-05-10T04:50:03;100656.06;;;12.68;90.39
79534;BME280;68982;52.160;6.736;2023-05-10T04:52:28;100658.78;;;12.74;90.35
79534;BME280;68982;52.160;6.736;2023-05-10T04:54:54;100661.25;;;12.69;90.14
79534;BME280;68982;52.160;6.736;2023-05-10T04:57:19;100667.91;;;12.73;90.20
79534;BME280;68982;52.160;6.736;2023-05-10T04:59:44;100662.31;;;12.68;90.48
79534;BME280;68982;52.160;6.736;2023-05-10T05:02:10;100671.22;;;12.62;91.07
79534;BME280;68982;52.160;6.736;2023-05-10T05:04:35;100667.53;;;12.76;89.48
79534;BME280;68982;52.160;6.736;2023-05-10T05:07:00;100670.00;;;12.84;89.21
79534;BME280;68982;52.160;6.736;2023-05-10T05:09:26;100680.44;;;12.81;89.46
79534;BME280;68982;52.160;6.736;2023-05-10T05:11:51;100678.53;;;12.75;90.05
79534;BME280;68982;52.160;6.736;2023-05-10T05:14:16;100676.66;;;12.69;91.54
79534;BME280;68982;52.160;6.736;2023-05-10T05:16:42;100672.72;;;12.78;90.12
79534;BME280;68982;52.160;6.736;2023-05-10T05:19:07;100678.13;;;12.78;90.15
79534;BME280;68982;52.160;6.736;2023-05-10T05:21:32;100687.91;;;12.79;89.92
79534;BME280;68982;52.160;6.736;2023-05-10T05:23:58;100686.22;;;12.78;90.10
79534;BME280;68982;52.160;6.736;2023-05-10T05:26:23;100682.72;;;12.84;90.32
79534;BME280;68982;52.160;6.736;2023-05-10T05:28:48;100687.28;;;12.70;91.44
79534;BME280;68982;52.160;6.736;2023-05-10T05:31:16;100682.06;;;12.62;90.74
79534;BME280;68982;52.160;6.736;2023-05-10T05:33:42;100694.97;;;12.67;90.87
79534;BME280;68982;52.160;6.736;2023-05-10T05:36:08;100685.81;;;12.61;91.81
79534;BME280;68982;52.160;6.736;2023-05-10T05:38:34;100691.44;;;12.73;90.52
79534;BME280;68982;52.160;6.736;2023-05-10T05:41:00;100698.94;;;12.77;90.60
79534;BME280;68982;52.160;6.736;2023-05-10T05:43:25;100697.06;;;12.71;90.24
79534;BME280;68982;52.160;6.736;2023-05-10T05:45:52;100698.50;;;12.67;91.49
79534;BME280;68982;52.160;6.736;2023-05-10T05:48:18;100703.31;;;12.72;90.48
79534;BME280;68982;52.160;6.736;2023-05-10T05:50:44;100699.75;;;12.64;90.68
79534;BME280;68982;52.160;6.736;2023-05-10T05:53:10;100698.09;;;12.70;91.12
79534;BME280;68982;52.160;6.736;2023-05-10T05:55:36;100691.00;;;12.62;91.58
79534;BME280;68982;52.160;6.736;2023-05-10T05:58:01;100684.75;;;12.55;91.33
79534;BME280;68982;52.160;6.736;2023-05-10T06:00:26;100695.56;;;12.55;91.30
79534;BME280;68982;52.160;6.736;2023-05-10T06:02:52;100697.66;;;12.60;91.02
79534;BME280;68982;52.160;6.736;2023-05-10T06:05:17;100704.13;;;12.59;91.32
79534;BME280;68982;52.160;6.736;2023-05-10T06:07:43;100700.81;;;12.70;90.75
79534;BME280;68982;52.160;6.736;2023-05-10T06:10:09;100701.00;;;12.69;90.77
79534;BME280;68982;52.160;6.736;2023-05-10T06:12:34;100705.56;;;12.61;91.33
79534;BME280;68982;52.160;6.736;2023-05-10T06:15:00;100710.97;;;12.61;91.42
79534;BME280;68982;52.160;6.736;2023-05-10T06:17:26;100716.19;;;12.63;90.35
79534;BME280;68982;52.160;6.736;2023-05-10T06:19:51;100712.63;;;12.62;91.08
79534;BME280;68982;52.160;6.736;2023-05-10T06:22:16;100713.91;;;12.67;90.60
79534;BME280;68982;52.160;6.736;2023-05-10T06:24:42;100722.25;;;12.72;90.15
79534;BME280;68982;52.160;6.736;2023-05-10T06:27:08;100724.34;;;12.70;90.42
79534;BME280;68982;52.160;6.736;2023-05-10T06:29:33;100729.09;;;12.61;90.70
79534;BME280;68982;52.160;6.736;2023-05-10T06:31:59;100732.44;;;12.63;90.67
79534;BME280;68982;52.160;6.736;2023-05-10T06:34:24;100722.63;;;12.62;90.04
79534;BME280;68982;52.160;6.736;2023-05-10T06:36:50;100724.53;;;12.68;90.09
79534;BME280;68982;52.160;6.736;2023-05-10T06:39:15;100733.66;;;12.67;90.46
79534;BME280;68982;52.160;6.736;2023-05-10T06:41:41;100730.56;;;12.70;90.64
79534;BME280;68982;52.160;6.736;2023-05-10T06:44:07;100737.84;;;12.70;91.02
79534;BME280;68982;52.160;6.736;2023-05-10T06:46:32;100732.44;;;12.70;91.18
79534;BME280;68982;52.160;6.736;2023-05-10T06:48:57;100745.34;;;12.74;90.84
79534;BME280;68982;52.160;6.736;2023-05-10T06:51:23;100742.03;;;12.85;90.39
79534;BME280;68982;52.160;6.736;2023-05-10T06:53:48;100736.41;;;13.00;89.87
79534;BME280;68982;52.160;6.736;2023-05-10T06:56:13;100738.72;;;13.03;89.51
79534;BME280;68982;52.160;6.736;2023-05-10T06:58:39;100747.06;;;13.02;89.59
79534;BME280;68982;52.160;6.736;2023-05-10T07:01:05;100751.22;;;13.04;89.58
79534;BME280;68982;52.160;6.736;2023-05-10T07:03:31;100742.47;;;13.09;90.02
79534;BME280;68982;52.160;6.736;2023-05-10T07:06:03;100751.66;;;13.21;89.07
79534;BME280;68982;52.160;6.736;2023-05-10T07:08:32;100747.91;;;13.29;89.43
79534;BME280;68982;52.160;6.736;2023-05-10T07:11:05;100748.78;;;13.36;88.68
79534;BME280;68982;52.160;6.736;2023-05-10T07:13:32;100761.47;;;13.29;89.42
79534;BME280;68982;52.160;6.736;2023-05-10T07:15:58;100757.28;;;13.26;88.55
79534;BME280;68982;52.160;6.736;2023-05-10T07:18:24;100763.72;;;13.19;89.04
79534;BME280;68982;52.160;6.736;2023-05-10T07:20:49;100765.41;;;13.33;89.01
79534;BME280;68982;52.160;6.736;2023-05-10T07:23:15;100771.47;;;13.42;88.75
79534;BME280;68982;52.160;6.736;2023-05-10T07:25:40;100772.91;;;13.38;88.72
79534;BME280;68982;52.160;6.736;2023-05-10T07:28:06;100772.09;;;13.37;89.27
79534;BME280;68982;52.160;6.736;2023-05-10T07:30:31;100770.44;;;13.36;89.30
79534;BME280;68982;52.160;6.736;2023-05-10T07:32:56;100777.50;;;13.31;89.01
79534;BME280;68982;52.160;6.736;2023-05-10T07:35:22;100776.22;;;13.26;87.98
79534;BME280;68982;52.160;6.736;2023-05-10T07:37:47;100775.00;;;13.42;88.47
79534;BME280;68982;52.160;6.736;2023-05-10T07:40:12;100775.41;;;13.26;88.74
79534;BME280;68982;52.160;6.736;2023-05-10T07:42:38;100778.91;;;13.13;89.03
79534;BME280;68982;52.160;6.736;2023-05-10T07:45:03;100779.41;;;13.37;87.42
79534;BME280;68982;52.160;6.736;2023-05-10T07:47:29;100783.97;;;13.43;87.89
79534;BME280;68982;52.160;6.736;2023-05-10T07:49:54;100768.91;;;13.27;87.78
79534;BME280;68982;52.160;6.736;2023-05-10T07:52:19;100792.69;;;13.32;88.71
79534;BME280;68982;52.160;6.736;2023-05-10T07:54:45;100793.13;;;13.29;88.18
79534;BME280;68982;52.160;6.736;2023-05-10T07:57:11;100791.69;;;13.33;87.99
79534;BME280;68982;52.160;6.736;2023-05-10T07:59:36;100796.66;;;13.36;88.03
79534;BME280;68982;52.160;6.736;2023-05-10T08:02:01;100797.28;;;13.31;87.15
79534;BME280;68982;52.160;6.736;2023-05-10T08:04:27;100802.94;;;13.30;88.19
79534;BME280;68982;52.160;6.736;2023-05-10T08:06:52;100809.59;;;13.34;87.72
79534;BME280;68982;52.160;6.736;2023-05-10T08:09:17;100811.03;;;13.23;88.24
79534;BME280;68982;52.160;6.736;2023-05-10T08:11:43;100792.25;;;13.21;87.94
79534;BME280;68982;52.160;6.736;2023-05-10T08:14:08;100806.47;;;13.37;87.64
79534;BME280;68982;52.160;6.736;2023-05-10T08:16:33;100803.78;;;13.37;87.79
79534;BME280;68982;52.160;6.736;2023-05-10T08:18:59;100805.19;;;13.26;88.35
79534;BME280;68982;52.160;6.736;2023-05-10T08:21:24;100814.59;;;13.30;87.61
79534;BME280;68982;52.160;6.736;2023-05-10T08:23:51;100816.00;;;13.26;87.78
79534;BME280;68982;52.160;6.736;2023-05-10T08:26:16;100817.06;;;13.38;87.98
79534;BME280;68982;52.160;6.736;2023-05-10T08:28:41;100816.06;;;13.39;87.86
79534;BME280;68982;52.160;6.736;2023-05-10T08:31:07;100822.31;;;13.40;87.93
79534;BME280;68982;52.160;6.736;2023-05-10T08:33:32;100821.47;;;13.33;87.55
79534;BME280;68982;52.160;6.736;2023-05-10T08:35:58;100822.69;;;13.23;88.12
79534;BME280;68982;52.160;6.736;2023-05-10T08:38:23;100826.44;;;13.29;87.45
79534;BME280;68982;52.160;6.736;2023-05-10T08:40:49;100827.91;;;13.32;87.27
79534;BME280;68982;52.160;6.736;2023-05-10T08:43:16;100825.81;;;13.34;87.08
79534;BME280;68982;52.160;6.736;2023-05-10T08:45:43;100824.75;;;13.21;87.82
79534;BME280;68982;52.160;6.736;2023-05-10T08:48:11;100833.31;;;13.32;87.24
79534;BME280;68982;52.160;6.736;2023-05-10T08:50:40;100833.94;;;13.34;87.48
79534;BME280;68982;52.160;6.736;2023-05-10T08:53:09;100837.72;;;13.33;86.19
79534;BME280;68982;52.160;6.736;2023-05-10T08:55:36;100847.50;;;13.34;87.43
79534;BME280;68982;52.160;6.736;2023-05-10T08:58:04;100848.13;;;13.36;87.95
79534;BME280;68982;52.160;6.736;2023-05-10T09:00:30;100849.19;;;13.41;88.12
79534;BME280;68982;52.160;6.736;2023-05-10T09:02:57;100846.69;;;13.40;88.23
79534;BME280;68982;52.160;6.736;2023-05-10T09:05:22;100846.47;;;13.28;88.10
79534;BME280;68982;52.160;6.736;2023-05-10T09:07:48;100858.75;;;13.31;88.58
79534;BME280;68982;52.160;6.736;2023-05-10T09:10:14;100858.28;;;13.27;88.36
79534;BME280;68982;52.160;6.736;2023-05-10T09:12:40;100860.41;;;13.32;89.07
79534;BME280;68982;52.160;6.736;2023-05-10T09:15:07;100865.00;;;13.38;88.86
79534;BME280;68982;52.160;6.736;2023-05-10T09:17:34;100860.22;;;13.46;87.47
79534;BME280;68982;52.160;6.736;2023-05-10T09:20:00;100873.75;;;13.33;88.91
79534;BME280;68982;52.160;6.736;2023-05-10T09:22:26;100867.09;;;13.36;88.94
79534;BME280;68982;52.160;6.736;2023-05-10T09:25:09;100871.25;;;13.45;89.11
79534;BME280;68982;52.160;6.736;2023-05-10T09:27:37;100875.84;;;13.51;87.71
79534;BME280;68982;52.160;6.736;2023-05-10T09:30:03;100877.31;;;13.60;87.30
79534;BME280;68982;52.160;6.736;2023-05-10T09:32:40;100879.41;;;13.58;86.91
79534;BME280;68982;52.160;6.736;2023-05-10T09:35:10;100879.41;;;13.65;87.06
79534;BME280;68982;52.160;6.736;2023-05-10T09:37:36;100882.75;;;13.60;87.55
79534;BME280;68982;52.160;6.736;2023-05-10T09:40:05;100881.09;;;13.59;87.45
79534;BME280;68982;52.160;6.736;2023-05-10T09:42:31;100890.69;;;13.75;87.43
79534;BME280;68982;52.160;6.736;2023-05-10T09:45:03;100894.00;;;13.71;86.93
79534;BME280;68982;52.160;6.736;2023-05-10T09:47:29;100886.31;;;13.67;87.02
79534;BME280;68982;52.160;6.736;2023-05-10T09:49:55;100888.59;;;13.84;86.81
79534;BME280;68982;52.160;6.736;2023-05-10T09:52:27;100892.13;;;13.64;85.89
79534;BME280;68982;52.160;6.736;2023-05-10T09:54:53;100894.22;;;13.76;85.21
79534;BME280;68982;52.160;6.736;2023-05-10T09:57:24;100899.63;;;13.69;86.36
79534;BME280;68982;52.160;6.736;2023-05-10T09:59:49;100897.16;;;13.87;85.66
79534;BME280;68982;52.160;6.736;2023-05-10T10:02:15;100897.13;;;13.54;87.13
79534;BME280;68982;52.160;6.736;2023-05-10T10:04:41;100898.78;;;13.62;86.82
79534;BME280;68982;52.160;6.736;2023-05-10T10:07:07;100906.50;;;13.58;86.95
79534;BME280;68982;52.160;6.736;2023-05-10T10:09:34;100903.56;;;13.53;87.10
79534;BME280;68982;52.160;6.736;2023-05-10T10:12:01;100902.56;;;13.61;85.89
79534;BME280;68982;52.160;6.736;2023-05-10T10:14:27;100905.47;;;13.59;85.47
79534;BME280;68982;52.160;6.736;2023-05-10T10:16:52;100911.91;;;13.72;85.77
79534;BME280;68982;52.160;6.736;2023-05-10T10:19:19;100900.69;;;13.75;86.40
79534;BME280;68982;52.160;6.736;2023-05-10T10:21:46;100905.91;;;13.96;85.37
79534;BME280;68982;52.160;6.736;2023-05-10T10:24:11;100912.16;;;14.17;86.08
79534;BME280;68982;52.160;6.736;2023-05-10T10:26:37;100910.00;;;14.52;84.09
79534;BME280;68982;52.160;6.736;2023-05-10T10:29:24;100914.59;;;14.45;80.19
79534;BME280;68982;52.160;6.736;2023-05-10T10:32:07;100910.00;;;14.59;82.42
79534;BME280;68982;52.160;6.736;2023-05-10T10:34:35;100904.94;;;14.76;80.80
79534;BME280;68982;52.160;6.736;2023-05-10T10:37:05;100909.91;;;14.92;82.85
79534;BME280;68982;52.160;6.736;2023-05-10T10:39:32;100916.00;;;15.26;80.85
79534;BME280;68982;52.160;6.736;2023-05-10T10:41:58;100909.59;;;15.07;79.25
79534;BME280;68982;52.160;6.736;2023-05-10T10:49:23;100900.03;;;14.98;82.58
79534;BME280;68982;52.160;6.736;2023-05-10T10:55:01;100904.06;;;14.82;80.07
79534;BME280;68982;52.160;6.736;2023-05-10T10:57:28;100907.28;;;14.59;80.67
79534;BME280;68982;52.160;6.736;2023-05-10T11:00:29;100918.97;;;14.66;81.09
79534;BME280;68982;52.160;6.736;2023-05-10T11:03:18;100925.00;;;14.75;82.47
79534;BME280;68982;52.160;6.736;2023-05-10T11:05:47;100914.22;;;15.00;81.19
79534;BME280;68982;52.160;6.736;2023-05-10T11:13:44;100919.84;;;15.05;77.67
79534;BME280;68982;52.160;6.736;2023-05-10T11:18:40;100913.84;;;15.34;80.36
79534;BME280;68982;52.160;6.736;2023-05-10T11:21:08;100916.38;;;15.29;78.39
79534;BME280;68982;52.160;6.736;2023-05-10T11:23:48;100924.16;;;15.19;81.07
79534;BME280;68982;52.160;6.736;2023-05-10T11:26:14;100920.47;;;15.07;78.06
79534;BME280;68982;52.160;6.736;2023-05-10T11:28:44;100925.50;;;15.03;80.66
79534;BME280;68982;52.160;6.736;2023-05-10T11:31:10;100915.25;;;15.05;77.78
79534;BME280;68982;52.160;6.736;2023-05-10T11:33:49;100917.34;;;15.03;79.26
79534;BME280;68982;52.160;6.736;2023-05-10T11:36:17;100930.69;;;15.05;77.93
79534;BME280;68982;52.160;6.736;2023-05-10T11:38:43;100929.03;;;15.10;78.33
79534;BME280;68982;52.160;6.736;2023-05-10T11:41:09;100931.59;;;14.99;77.80
79534;BME280;68982;52.160;6.736;2023-05-10T11:43:36;100937.00;;;15.05;77.14
79534;BME280;68982;52.160;6.736;2023-05-10T11:46:04;100933.06;;;14.95;78.38
79534;BME280;68982;52.160;6.736;2023-05-10T11:48:30;100945.75;;;15.07;78.20
79534;BME280;68982;52.160;6.736;2023-05-10T11:50:56;100933.66;;;15.03;77.13
79534;BME280;68982;52.160;6.736;2023-05-10T11:53:24;100938.50;;;14.95;77.13
79534;BME280;68982;52.160;6.736;2023-05-10T11:55:50;100936.47;;;14.77;77.98
79534;BME280;68982;52.160;6.736;2023-05-10T11:58:17;100947.72;;;14.80;78.58
79534;BME280;68982;52.160;6.736;2023-05-10T12:00:43;100948.28;;;14.96;79.13
79534;BME280;68982;52.160;6.736;2023-05-10T12:03:09;100949.16;;;14.83;77.38
79534;BME280;68982;52.160;6.736;2023-05-10T12:05:35;100944.97;;;14.87;78.45
79534;BME280;68982;52.160;6.736;2023-05-10T12:08:14;100952.88;;;15.02;78.85
79534;BME280;68982;52.160;6.736;2023-05-10T12:10:40;100954.53;;;15.03;77.88
79534;BME280;68982;52.160;6.736;2023-05-10T12:13:11;100959.78;;;14.98;77.28
79534;BME280;68982;52.160;6.736;2023-05-10T12:15:37;100954.38;;;14.84;78.49
79534;BME280;68982;52.160;6.736;2023-05-10T12:18:03;100965.72;;;14.68;77.84
79534;BME280;68982;52.160;6.736;2023-05-10T12:20:28;100966.72;;;14.74;79.70
79534;BME280;68982;52.160;6.736;2023-05-10T12:22:56;100964.84;;;14.87;76.37
79534;BME280;68982;52.160;6.736;2023-05-10T12:25:23;100967.44;;;15.21;75.67
79534;BME280;68982;52.160;6.736;2023-05-10T12:30:19;100971.84;;;15.53;76.04
79534;BME280;68982;52.160;6.736;2023-05-10T12:32:45;100963.16;;;15.77;73.67
79534;BME280;68982;52.160;6.736;2023-05-10T12:35:11;100973.06;;;15.58;75.93
79534;BME280;68982;52.160;6.736;2023-05-10T12:37:36;100972.69;;;15.54;75.04
79534;BME280;68982;52.160;6.736;2023-05-10T12:40:08;100966.34;;;15.60;75.80
79534;BME280;68982;52.160;6.736;2023-05-10T12:42:34;100969.41;;;15.45;75.14
79534;BME280;68982;52.160;6.736;2023-05-10T12:45:01;100975.91;;;15.38;75.86
79534;BME280;68982;52.160;6.736;2023-05-10T12:47:26;100980.81;;;15.16;73.36
79534;BME280;68982;52.160;6.736;2023-05-10T12:49:51;100981.63;;;15.16;74.58
79534;BME280;68982;52.160;6.736;2023-05-10T12:52:17;100983.47;;;15.29;76.83
79534;BME280;68982;52.160;6.736;2023-05-10T12:54:42;100980.47;;;14.92;73.78
79534;BME280;68982;52.160;6.736;2023-05-10T12:57:07;100982.97;;;14.93;76.95
79534;BME280;68982;52.160;6.736;2023-05-10T12:59:33;100991.34;;;14.92;75.73
79534;BME280;68982;52.160;6.736;2023-05-10T13:01:58;100995.09;;;14.84;75.41
79534;BME280;68982;52.160;6.736;2023-05-10T13:04:23;100997.59;;;14.92;76.58
79534;BME280;68982;52.160;6.736;2023-05-10T13:06:49;100990.09;;;14.95;74.04
79534;BME280;68982;52.160;6.736;2023-05-10T13:09:14;100994.63;;;15.14;76.00
79534;BME280;68982;52.160;6.736;2023-05-10T13:11:40;100995.78;;;15.31;74.83
79534;BME280;68982;52.160;6.736;2023-05-10T13:14:05;100985.97;;;15.30;75.30
79534;BME280;68982;52.160;6.736;2023-05-10T13:16:31;100988.19;;;15.47;75.52
79534;BME280;68982;52.160;6.736;2023-05-10T13:18:56;100987.25;;;15.66;72.05